Latest Weather Observations for Parafield

IDS60901

Issued at 7:51 am CST Friday 27 May 2016 (issued every 10 minutes, with the page automatically refreshed every 10 minutes)

About weather observations | Map of Adelaide area stations | Latest observations for Adelaide area | Other Formats
Station Details ID: 023013 Name: PARAFIELD AIRPORT Lat: -34.80 Lon: 138.63 Height: 9.5 m
Data from the previous 72 hours. | See also: Recent months at Parafield
Date/Time
CST
Tmp

°C
App
Tmp
°C
Dew
Point
°C
Rel
Hum
%
Delta-T

°C
Wind Press
QNH
hPa
Press
MSL
hPa
Rain
since
9 am
mm
Dir
 
Spd
km/h
Gust
km/h
Spd
kts
Gust
kts
27/07:38am 12.1 9.6 11.0 93 0.6 N 15 20 8 11 1008.8 1008.8 4.4
27/07:30am 12.0 9.5 10.9 93 0.6 N 15 24 8 13 1009.0 1009.0 4.4
27/07:00am 11.7 8.7 10.6 93 0.6 N 17 22 9 12 1009.2 1009.2 4.4
27/06:30am 12.0 9.0 10.6 91 0.7 NNW 17 20 9 11 1009.2 1009.2 4.4
27/06:27am 11.9 8.9 10.5 91 0.7 NNW 17 26 9 14 1009.2 1009.2 4.4
27/06:18am 11.9 8.2 10.3 90 0.8 NW 20 30 11 16 1009.3 1009.3 4.4
27/06:09am 11.9 8.3 10.5 91 0.7 NNW 20 43 11 23 1009.6 1009.6 3.8
27/06:00am 11.7 8.3 10.4 92 0.7 N 19 26 10 14 1009.2 1009.2 2.8
27/05:55am 11.5 8.0 10.2 92 0.7 N 19 22 10 12 1009.1 1009.1 2.8
27/05:30am 11.4 7.9 10.1 92 0.7 N 19 24 10 13 1009.2 1009.2 2.8
27/05:00am 11.4 8.2 10.1 92 0.7 N 17 24 9 13 1009.4 1009.4 2.8
27/04:30am 11.1 7.5 9.9 92 0.6 N 19 20 10 11 1009.8 1009.8 2.8
27/04:00am 11.1 7.9 10.0 93 0.6 N 17 24 9 13 1010.0 1010.0 2.8
27/03:46am 11.0 7.8 10.1 94 0.5 N 17 20 9 11 1010.0 1010.0 2.8
27/03:30am 11.1 8.0 10.2 94 0.5 N 17 22 9 12 1010.2 1010.2 2.8
27/03:24am 11.1 8.0 10.2 94 0.5 N 17 20 9 11 1010.2 1010.2 2.8
27/03:00am 11.1 7.9 10.0 93 0.6 N 17 24 9 13 1010.3 1010.3 2.8
27/02:32am 11.2 8.0 10.0 92 0.6 NNE 17 22 9 12 1010.5 1010.5 2.8
27/02:30am 11.2 8.0 10.0 92 0.6 NNE 17 22 9 12 1010.5 1010.5 2.8
27/02:18am 11.3 8.5 10.0 92 0.7 NNE 15 19 8 10 1010.5 1010.5 2.6
27/02:00am 11.1 8.7 9.9 92 0.6 N 13 17 7 9 1010.8 1010.8 2.2
27/01:30am 11.0 7.8 9.9 93 0.6 NNE 17 19 9 10 1010.9 1010.9 2.2
27/01:00am 11.0 8.6 10.1 94 0.5 NNE 13 15 7 8 1011.1 1011.1 2.2
27/12:30am 10.9 8.5 10.0 94 0.5 NNE 13 13 7 7 1011.2 1011.2 2.2
27/12:00am 10.4 8.3 9.6 95 0.4 NE 11 15 6 8 1011.3 1011.3 2.2
 
Date/Time
CST
Tmp

°C
App
Tmp
°C
Dew
Point
°C
Rel
Hum
%
Delta-T

°C
Wind Press
QNH
hPa
Press
MSL
hPa
Rain
since
9 am
mm
Dir
 
Spd
km/h
Gust
km/h
Spd
kts
Gust
kts
26/11:30pm 10.3 8.1 9.4 94 0.4 NNE 11 13 6 7 1011.5 1011.5 2.2
26/11:00pm 10.5 8.4 9.6 94 0.5 NE 11 13 6 7 1011.7 1011.7 2.2
26/10:30pm 10.4 9.0 9.5 94 0.5 NE 7 11 4 6 1011.8 1011.8 2.2
26/10:00pm 11.0 9.4 10.1 94 0.5 NNE 9 11 5 6 1012.1 1012.1 2.2
26/09:30pm 11.3 9.4 10.4 94 0.5 NE 11 13 6 7 1012.2 1012.2 2.2
26/09:00pm 11.3 10.1 10.2 93 0.6 NE 7 9 4 5 1012.2 1012.2 2.2
26/08:30pm 11.7 9.8 10.4 92 0.7 NE 11 11 6 6 1012.1 1012.1 2.2
26/08:00pm 12.3 10.5 10.9 91 0.7 NE 11 13 6 7 1012.0 1012.0 2.2
26/07:37pm 12.6 11.1 10.7 88 1.0 NW 9 13 5 7 1011.8 1011.8 2.2
26/07:30pm 12.9 11.1 10.8 87 1.1 WNW 11 19 6 10 1011.7 1011.7 2.2
26/07:17pm 12.5 12.0 10.6 88 1.0 NNW 4 13 2 7 1011.8 1011.8 1.6
26/07:00pm 12.3 10.9 9.7 84 1.3 NNW 7 9 4 5 1011.4 1011.4 0.0
26/06:30pm 12.3 10.9 9.5 83 1.4 NW 7 13 4 7 1011.3 1011.3 0.0
26/06:00pm 12.5 11.1 9.0 79 1.8 WSW 6 6 3 3 1010.9 1010.9 0.0
26/05:30pm 12.9 10.8 8.4 74 2.2 WSW 9 13 5 7 1010.7 1010.7 0.0
26/05:00pm 14.2 11.4 8.4 68 2.9 WSW 13 17 7 9 1010.5 1010.5 0.0
26/04:30pm 15.5 11.5 8.3 62 3.6 WSW 19 24 10 13 1010.2 1010.2 0.0
26/04:00pm 16.1 12.4 7.8 58 4.2 SW 17 24 9 13 1010.0 1010.0 0.0
26/03:30pm 16.4 12.4 8.1 58 4.2 SW 19 24 10 13 1009.8 1009.8 0.0
26/03:00pm 16.6 12.4 8.1 57 4.3 WSW 20 26 11 14 1009.6 1009.6 0.0
26/02:30pm 16.9 12.7 8.3 57 4.4 WSW 20 28 11 15 1009.3 1009.3 0.0
26/02:00pm 16.7 11.7 7.9 56 4.4 SW 24 32 13 17 1009.2 1009.2 0.0
26/01:30pm 17.1 12.0 7.7 54 4.7 WSW 24 32 13 17 1009.3 1009.3 0.0
26/01:00pm 16.9 12.1 8.8 59 4.2 WSW 24 32 13 17 1009.7 1009.7 0.0
26/12:30pm 16.3 12.4 9.3 63 3.6 SW 20 28 11 15 1009.6 1009.6 0.0
26/12:00pm 16.2 11.6 8.2 59 4.1 WSW 22 30 12 16 1009.7 1009.7 0.0
26/11:30am 15.8 11.6 8.1 60 3.9 SW 20 28 11 15 1009.8 1009.8 0.0
26/11:00am 16.4 12.3 8.6 60 4.0 WSW 20 28 11 15 1009.9 1009.9 0.0
26/10:30am 16.1 12.3 9.1 63 3.6 SW 19 26 10 14 1009.8 1009.8 0.0
26/10:00am 15.2 13.4 11.0 76 2.2 SSW 11 15 6 8 1009.9 1009.9 0.0
26/09:30am 14.4 13.5 11.2 81 1.7 SSW 7 11 4 6 1009.8 1009.8 0.0
26/09:00am 13.2 11.9 11.1 87 1.1 S 9 13 5 7 1009.6 1009.6 25.8
26/08:30am 12.4 11.6 11.6 95 0.4 SSE 7 13 4 7 1009.5 1009.5 25.8
26/08:12am 12.3 12.8 11.7 96 0.3 CALM 0 2 0 1 1009.4 1009.4 25.8
26/08:00am 12.0 12.4 11.4 96 0.3 CALM 0 0 0 0 1009.2 1009.2 25.8
26/07:34am 11.8 12.1 11.0 95 0.4 CALM 0 0 0 0 1008.8 1008.8 25.6
26/07:30am 11.8 12.1 11.0 95 0.4 CALM 0 0 0 0 1008.9 1008.9 25.6
26/07:00am 12.1 12.5 11.3 95 0.4 CALM 0 0 0 0 1008.7 1008.7 25.6
26/06:30am 12.4 11.6 11.6 95 0.4 SSW 7 9 4 5 1008.3 1008.3 25.6
26/06:29am 12.5 11.7 11.7 95 0.4 SSW 7 11 4 6 1008.3 1008.3 25.6
26/06:10am 12.7 11.3 12.1 96 0.3 S 11 15 6 8 1008.2 1008.2 25.6
26/06:00am 12.7 10.9 12.1 96 0.3 S 13 20 7 11 1008.1 1008.1 25.6
26/05:30am 12.5 12.0 11.9 96 0.3 S 6 9 3 5 1007.8 1007.8 24.8
26/05:00am 12.8 12.2 12.3 97 0.3 SW 7 9 4 5 1007.6 1007.6 24.8
26/04:38am 12.6 11.5 12.1 97 0.3 WSW 9 13 5 7 1007.5 1007.5 24.8
26/04:30am 12.6 11.2 12.1 97 0.3 WSW 11 17 6 9 1007.4 1007.4 24.8
26/04:00am 11.9 12.3 11.4 97 0.3 CALM 0 0 0 0 1007.0 1007.0 24.8
26/03:30am 12.3 12.1 11.8 97 0.3 W 4 6 2 3 1006.9 1006.9 24.8
26/03:27am 12.1 11.5 11.6 97 0.3 W 6 7 3 4 1006.9 1006.9 24.8
26/03:01am 12.9 12.5 12.4 97 0.3 WNW 6 7 3 4 1006.8 1006.8 24.8
26/03:00am 12.9 12.5 12.4 97 0.3 WNW 6 7 3 4 1006.8 1006.8 24.8
26/02:38am 13.2 13.6 12.6 96 0.3 NW 2 7 1 4 1006.6 1006.6 24.8
26/02:30am 13.4 14.3 12.8 96 0.3 CALM 0 0 0 0 1006.6 1006.6 24.8
26/02:13am 13.8 14.8 13.2 96 0.3 CALM 0 0 0 0 1006.5 1006.5 24.8
26/02:00am 13.9 14.6 13.3 96 0.3 W 2 11 1 6 1006.6 1006.6 24.8
26/01:30am 13.9 13.8 13.3 96 0.3 WNW 6 7 3 4 1006.6 1006.6 24.6
26/01:23am 13.9 13.8 13.3 96 0.3 NNW 6 9 3 5 1006.5 1006.5 24.6
26/01:09am 13.9 13.2 13.3 96 0.3 N 9 11 5 6 1006.3 1006.3 24.6
26/01:00am 14.0 12.6 13.4 96 0.3 NNW 13 19 7 10 1006.4 1006.4 24.6
26/12:54am 14.1 12.4 13.5 96 0.3 WNW 15 20 8 11 1006.6 1006.6 24.4
26/12:30am 14.0 11.8 13.4 96 0.3 NNW 17 22 9 12 1006.7 1006.7 22.2
26/12:26am 14.0 11.8 13.4 96 0.3 NW 17 22 9 12 1006.7 1006.7 21.8
26/12:00am 14.0 11.8 13.4 96 0.3 NNW 17 20 9 11 1006.8 1006.8 20.0
 
Date/Time
CST
Tmp

°C
App
Tmp
°C
Dew
Point
°C
Rel
Hum
%
Delta-T

°C
Wind Press
QNH
hPa
Press
MSL
hPa
Rain
since
9 am
mm
Dir
 
Spd
km/h
Gust
km/h
Spd
kts
Gust
kts
25/11:40pm 13.9 11.7 13.3 96 0.3 NNW 17 24 9 13 1006.9 1006.9 18.4
25/11:30pm 13.9 11.7 13.3 96 0.3 NW 17 22 9 12 1006.9 1006.9 17.8
25/11:18pm 13.8 11.6 13.2 96 0.3 NNW 17 24 9 13 1007.0 1007.0 16.2
25/11:00pm 13.7 11.8 13.1 96 0.3 N 15 22 8 12 1006.8 1006.8 14.8
25/10:30pm 13.6 12.0 12.8 95 0.4 N 13 20 7 11 1007.0 1007.0 14.2
25/10:00pm 13.5 11.5 12.7 95 0.4 N 15 19 8 10 1007.6 1007.6 13.2
25/09:30pm 13.3 10.9 12.5 95 0.4 N 17 24 9 13 1007.8 1007.8 12.0
25/09:00pm 13.3 12.4 12.5 95 0.4 N 9 13 5 7 1007.8 1007.8 10.2
25/08:30pm 13.2 11.8 12.3 94 0.5 N 11 15 6 8 1007.5 1007.5 9.4
25/08:01pm 13.2 11.8 12.3 94 0.5 N 11 15 6 8 1007.4 1007.4 9.2
25/08:00pm 13.2 11.8 12.3 94 0.5 N 11 15 6 8 1007.5 1007.5 9.2
25/07:46pm 13.2 11.5 12.3 94 0.5 NNW 13 17 7 9 1007.7 1007.7 9.0
25/07:30pm 13.3 11.5 12.2 93 0.6 N 13 19 7 10 1007.7 1007.7 8.2
25/07:00pm 13.3 11.5 12.2 93 0.6 NNW 13 19 7 10 1007.6 1007.6 7.4
25/06:30pm 13.5 10.6 12.2 92 0.7 NNW 19 26 10 14 1007.4 1007.4 6.8
25/06:00pm 13.7 10.6 12.1 90 0.9 NNW 20 26 11 14 1007.6 1007.6 6.0
25/05:30pm 13.9 11.3 12.1 89 1.0 NNW 17 24 9 13 1007.5 1007.5 6.0
25/05:00pm 14.1 11.6 12.3 89 1.0 N 17 28 9 15 1007.4 1007.4 5.8
25/04:30pm 14.1 11.6 12.3 89 1.0 N 17 28 9 15 1007.6 1007.6 5.8
25/04:22pm 14.3 11.5 12.5 89 1.0 N 19 24 10 13 1007.7 1007.7 5.8
25/04:02pm 14.6 12.2 12.6 88 1.1 NNW 17 20 9 11 1008.0 1008.0 5.6
25/04:00pm 14.6 12.2 12.6 88 1.1 NNW 17 24 9 13 1007.9 1007.9 5.6
25/03:49pm 14.6 12.2 12.8 89 1.0 N 17 28 9 15 1007.8 1007.8 5.6
25/03:37pm 14.8 13.3 13.2 90 0.9 NNW 13 20 7 11 1007.6 1007.6 5.6
25/03:30pm 14.8 13.8 13.3 91 0.8 N 11 17 6 9 1007.6 1007.6 5.6
25/03:00pm 14.9 13.3 12.9 88 1.1 N 13 17 7 9 1007.2 1007.2 5.0
25/02:30pm 14.9 13.3 12.8 87 1.2 N 13 19 7 10 1007.4 1007.4 5.0
25/02:00pm 14.3 11.8 12.2 87 1.1 N 17 24 9 13 1007.4 1007.4 5.0
25/01:30pm 14.1 10.9 12.0 87 1.1 N 20 28 11 15 1008.1 1008.1 5.0
25/01:00pm 14.0 10.4 11.9 87 1.1 N 22 30 12 16 1008.6 1008.6 4.8
25/12:30pm 13.6 10.4 11.8 89 1.0 N 20 26 11 14 1009.0 1009.0 4.8
25/12:00pm 12.8 9.4 11.4 91 0.7 N 20 26 11 14 1009.5 1009.5 4.8
25/11:30am 12.2 8.7 10.8 91 0.7 N 20 28 11 15 1010.7 1010.7 4.6
25/11:21am 12.0 8.4 10.6 91 0.7 N 20 30 11 16 1010.9 1010.9 4.6
25/11:00am 11.9 7.4 10.1 89 0.9 N 24 35 13 19 1011.4 1011.4 3.6
25/10:30am 12.0 7.2 10.2 89 0.9 N 26 33 14 18 1011.9 1011.9 2.4
25/10:00am 11.7 7.2 9.9 89 0.9 N 24 32 13 17 1012.3 1012.3 1.8
25/09:30am 11.8 7.5 9.4 85 1.2 N 22 35 12 19 1012.6 1012.6 0.8
25/09:00am 12.0 8.2 9.0 82 1.5 N 19 28 10 15 1012.8 1012.8 2.0
25/08:30am 12.2 8.7 8.7 79 1.7 N 17 26 9 14 1013.0 1013.0 1.2
25/08:00am 12.6 8.3 7.9 73 2.3 N 20 28 11 15 1012.8 1012.8 0.8
25/07:30am 12.8 8.4 7.5 70 2.6 NNE 20 26 11 14 1012.7 1012.7 0.6
25/07:00am 12.6 8.4 7.5 71 2.5 NNE 19 24 10 13 1012.9 1012.9 0.6
25/06:30am 12.1 9.1 7.8 75 2.1 NNE 13 19 7 10 1012.7 1012.7 0.6
25/06:00am 11.6 9.1 8.3 80 1.6 NE 11 15 6 8 1012.7 1012.7 0.6
25/05:30am 11.8 8.0 7.7 76 2.0 NNE 17 20 9 11 1013.4 1013.4 0.6
25/05:00am 12.4 8.5 7.1 70 2.6 NNE 17 20 9 11 1013.7 1013.7 0.4
25/04:30am 13.2 9.2 6.5 64 3.2 NNE 17 24 9 13 1013.7 1013.7 0.4
25/04:00am 13.9 9.6 5.3 56 4.0 N 17 26 9 14 1013.8 1013.8 0.4
25/03:30am 13.1 10.7 6.9 66 3.0 N 9 13 5 7 1013.7 1013.7 0.4
25/03:00am 14.4 12.2 6.3 58 3.9 NE 7 7 4 4 1014.0 1014.0 0.0
25/02:30am 14.8 11.1 4.5 50 4.8 NE 13 17 7 9 1013.7 1013.7 0.0
25/02:00am 15.9 10.8 3.0 42 5.9 NNE 19 28 10 15 1013.3 1013.3 0.0
25/01:30am 16.8 11.3 0.5 33 7.1 NNE 19 26 10 14 1012.9 1012.9 0.0
25/01:00am 16.3 10.7 1.2 36 6.6 NE 20 24 11 13 1013.3 1013.3 0.0
25/12:30am 16.3 10.3 1.2 36 6.6 NE 22 30 12 16 1013.9 1013.9 0.0
25/12:00am 16.2 10.8 1.1 36 6.6 NNE 19 26 10 14 1014.0 1014.0 0.0
 
Date/Time
CST
Tmp

°C
App
Tmp
°C
Dew
Point
°C
Rel
Hum
%
Delta-T

°C
Wind Press
QNH
hPa
Press
MSL
hPa
Rain
since
9 am
mm
Dir
 
Spd
km/h
Gust
km/h
Spd
kts
Gust
kts
24/11:30pm 16.0 9.7 1.3 37 6.4 NNE 24 30 13 16 1014.5 1014.5 0.0
24/11:00pm 15.9 9.9 1.2 37 6.4 NNE 22 28 12 15 1014.7 1014.7 0.0
24/10:30pm 15.9 10.3 0.9 36 6.5 NNE 20 26 11 14 1015.2 1015.2 0.0
24/10:00pm 15.3 10.1 0.3 36 6.4 NNE 17 22 9 12 1015.6 1015.6 0.0
24/09:30pm 14.4 9.5 2.0 43 5.4 NNE 17 20 9 11 1015.9 1015.9 0.0
24/09:00pm 13.6 8.9 3.4 50 4.6 NE 17 20 9 11 1016.2 1016.2 0.0
24/08:30pm 11.9 7.8 4.6 61 3.3 NE 15 17 8 9 1016.5 1016.5 0.0
24/08:00pm 11.2 7.7 5.5 68 2.6 NE 13 17 7 9 1016.8 1016.8 0.0
24/07:30pm 11.3 8.8 6.4 72 2.3 NE 9 9 5 5 1016.7 1016.7 0.0
24/07:00pm 13.3 12.8 8.0 70 2.6 CALM 0 0 0 0 1016.7 1016.7 0.0
24/06:30pm 13.0 12.5 7.7 70 2.6 CALM 0 0 0 0 1016.7 1016.7 0.0
24/06:00pm 13.7 13.2 7.9 68 2.9 CALM 0 6 0 3 1016.6 1016.6 0.0
24/05:30pm 15.4 14.8 7.2 58 4.0 CALM 0 6 0 3 1016.6 1016.6 0.0
24/05:00pm 17.5 15.4 6.7 49 5.4 WSW 7 9 4 5 1016.5 1016.5 0.0
24/04:30pm 19.6 17.9 8.3 48 5.8 WSW 7 11 4 6 1016.7 1016.7 0.0
24/04:00pm 20.4 17.5 6.4 40 7.0 WNW 11 15 6 8 1017.0 1017.0 0.0
24/03:30pm 21.2 16.5 5.1 35 7.9 N 19 24 10 13 1017.2 1017.2 0.0
24/03:00pm 21.3 16.9 6.4 38 7.5 N 19 28 10 15 1017.4 1017.4 0.0
24/02:30pm 21.2 17.3 7.1 40 7.2 N 17 26 9 14 1017.8 1017.8 0.0
24/02:00pm 21.2 17.4 7.4 41 7.1 N 17 24 9 13 1018.1 1018.1 0.0
24/01:30pm 21.0 17.1 7.3 41 7.0 N 17 26 9 14 1018.5 1018.5 0.0
24/01:00pm 19.9 15.8 7.9 46 6.2 N 19 28 10 15 1019.4 1019.4 0.0
24/12:30pm 19.8 16.1 9.4 51 5.5 N 19 24 10 13 1019.8 1019.8 0.0
24/12:00pm 19.0 15.2 8.9 52 5.3 NNE 19 26 10 14 1020.6 1020.6 0.0
24/11:30am 18.7 15.4 9.5 55 4.8 NNE 17 22 9 12 1021.5 1021.5 0.0
24/11:00am 17.5 14.5 9.4 59 4.2 NNE 15 20 8 11 1022.5 1022.4 0.0
24/10:30am 17.0 14.7 10.4 65 3.5 NNE 13 15 7 8 1023.2 1023.1 0.0
24/10:00am 16.4 14.5 10.5 68 3.1 NNE 11 13 6 7 1023.3 1023.2 0.0
24/09:30am 15.8 14.3 10.6 71 2.7 NE 9 13 5 7 1023.5 1023.4 0.0
24/09:00am 14.4 12.7 11.2 81 1.7 NE 11 13 6 7 1023.7 1023.6 0.2
24/08:30am 11.8 10.8 11.0 95 0.4 NNE 7 9 4 5 1023.7 1023.6 0.2
24/08:00am 9.3 7.6 8.5 95 0.4 E 7 7 4 4 1023.6 1023.5 0.2

Latest Capital City Observations: Canberra | Sydney | Melbourne | Brisbane | Adelaide | Perth | Hobart | Darwin

Other Formats:

Comma delimited format used in spreadsheet applications
http://www.bom.gov.au/fwo/IDS60901/IDS60901.95677.axf

JavaScript Object Notation format (JSON) in row-major order
http://www.bom.gov.au/fwo/IDS60901/IDS60901.95677.json